Time,TemperatureF,DewpointF,PressureIn,WindDirection,WindDirectionDegrees,WindSpeedMPH,WindSpeedGustMPH,Humidity,HourlyPrecipIn,Conditions,Clouds,dailyrainin,SoftwareType,DateUTC
2013-02-05 00:03:00,36.0,24.6,30.08,WSW,240,3.0,3.0,63,0.00,,,0.00,Wunderground v.1.15,2013-02-05 08:03:00,
2013-02-05 00:09:00,36.1,24.7,30.07,SW,229,2.0,3.0,63,0.00,,,0.00,Wunderground v.1.15,2013-02-05 08:09:00,
2013-02-05 00:15:00,36.2,25.2,30.07,SW,227,2.0,2.0,64,0.00,,,0.00,Wunderground v.1.15,2013-02-05 08:15:00,
2013-02-05 00:20:00,36.5,25.1,30.07,SW,226,2.0,2.0,63,0.00,,,0.00,Wunderground v.1.15,2013-02-05 08:20:00,
2013-02-05 00:26:00,37.1,25.3,30.07,SSW,211,2.0,3.0,62,0.00,,,0.00,Wunderground v.1.15,2013-02-05 08:26:00,
2013-02-05 00:31:00,37.1,24.9,30.07,WSW,238,2.0,3.0,61,0.00,,,0.00,Wunderground v.1.15,2013-02-05 08:31:00,
2013-02-05 00:37:00,36.8,25.0,30.06,SSW,202,3.0,5.0,62,0.00,,,0.00,Wunderground v.1.15,2013-02-05 08:37:00,
2013-02-05 00:43:00,36.8,25.0,30.06,WSW,239,4.0,4.0,62,0.00,,,0.00,Wunderground v.1.15,2013-02-05 08:43:00,
2013-02-05 00:48:00,36.4,24.6,30.06,WSW,253,3.0,4.0,62,0.00,,,0.00,Wunderground v.1.15,2013-02-05 08:48:00,
2013-02-05 00:53:00,35.9,24.9,30.05,SW,231,3.0,3.0,64,0.00,,,0.00,Wunderground v.1.15,2013-02-05 08:53:00,
2013-02-05 00:59:00,35.6,25.0,30.05,WSW,243,2.0,3.0,65,0.00,,,0.00,Wunderground v.1.15,2013-02-05 08:59:00,
2013-02-05 01:05:00,35.8,25.2,30.05,SW,227,3.0,4.0,65,0.00,,,0.00,Wunderground v.1.15,2013-02-05 09:05:00,
2013-02-05 01:11:00,35.6,25.0,30.05,WSW,256,3.0,3.0,65,0.00,,,0.00,Wunderground v.1.15,2013-02-05 09:11:00,
2013-02-05 01:16:00,34.6,24.4,30.05,WSW,257,3.0,3.0,66,0.00,,,0.00,Wunderground v.1.15,2013-02-05 09:16:00,
2013-02-05 01:22:00,34.2,24.7,30.05,West,259,2.0,2.0,68,0.00,,,0.00,Wunderground v.1.15,2013-02-05 09:22:00,
2013-02-05 01:28:00,34.5,25.0,30.05,WSW,255,2.0,3.0,68,0.00,,,0.00,Wunderground v.1.15,2013-02-05 09:28:00,
2013-02-05 01:33:00,35.3,25.8,30.05,WSW,247,2.0,2.0,68,0.00,,,0.00,Wunderground v.1.15,2013-02-05 09:33:00,
2013-02-05 01:39:00,36.7,26.4,30.05,WSW,253,2.0,2.0,66,0.00,,,0.00,Wunderground v.1.15,2013-02-05 09:39:00,
2013-02-05 01:45:00,36.4,25.7,30.05,West,262,2.0,3.0,65,0.00,,,0.00,Wunderground v.1.15,2013-02-05 09:45:00,
2013-02-05 01:51:00,35.3,24.3,30.05,SSE,157,1.0,2.0,64,0.00,,,0.00,Wunderground v.1.15,2013-02-05 09:51:00,
2013-02-05 01:56:00,34.7,24.9,30.05,South,173,1.0,2.0,67,0.00,,,0.00,Wunderground v.1.15,2013-02-05 09:56:00,
2013-02-05 02:02:00,34.4,24.2,30.05,SE,146,1.0,2.0,66,0.00,,,0.00,Wunderground v.1.15,2013-02-05 10:02:00,
2013-02-05 02:08:00,33.9,24.4,30.05,SSE,164,2.0,2.0,68,0.00,,,0.00,Wunderground v.1.15,2013-02-05 10:08:00,
2013-02-05 02:14:00,33.9,24.4,30.04,SSE,160,3.0,3.0,68,0.00,,,0.00,Wunderground v.1.15,2013-02-05 10:14:00,
2013-02-05 02:20:00,33.9,24.4,30.04,SSW,201,3.0,3.0,68,0.00,,,0.00,Wunderground v.1.15,2013-02-05 10:20:00,
2013-02-05 02:25:00,33.9,24.8,30.04,South,188,3.0,4.0,69,0.00,,,0.00,Wunderground v.1.15,2013-02-05 10:25:00,
2013-02-05 02:30:00,34.2,25.1,30.04,SSW,207,3.0,3.0,69,0.00,,,0.00,Wunderground v.1.15,2013-02-05 10:30:00,
2013-02-05 02:36:00,34.0,24.9,30.04,SW,217,2.0,3.0,69,0.00,,,0.00,Wunderground v.1.15,2013-02-05 10:36:00,
2013-02-05 02:42:00,33.9,24.8,30.03,SW,226,2.0,3.0,69,0.00,,,0.00,Wunderground v.1.15,2013-02-05 10:42:00,
2013-02-05 02:47:00,33.9,24.8,30.03,SW,236,3.0,3.0,69,0.00,,,0.00,Wunderground v.1.15,2013-02-05 10:47:00,
2013-02-05 02:53:00,34.5,25.0,30.03,WSW,241,2.0,3.0,68,0.00,,,0.00,Wunderground v.1.15,2013-02-05 10:53:00,
2013-02-05 02:58:00,34.6,25.1,30.04,WSW,237,2.0,3.0,68,0.00,,,0.00,Wunderground v.1.15,2013-02-05 10:58:00,
2013-02-05 03:04:00,34.7,25.2,30.04,WSW,241,2.0,2.0,68,0.00,,,0.00,Wunderground v.1.15,2013-02-05 11:04:00,
2013-02-05 03:10:00,34.5,25.0,30.04,WSW,239,2.0,2.0,68,0.00,,,0.00,Wunderground v.1.15,2013-02-05 11:10:00,
2013-02-05 03:16:00,34.1,24.6,30.04,SSW,205,1.0,2.0,68,0.00,,,0.00,Wunderground v.1.15,2013-02-05 11:16:00,
2013-02-05 03:21:00,33.6,24.5,30.04,SW,218,0.0,2.0,69,0.00,,,0.00,Wunderground v.1.15,2013-02-05 11:21:00,
2013-02-05 03:27:00,34.0,24.9,30.04,West,262,2.0,4.0,69,0.00,,,0.00,Wunderground v.1.15,2013-02-05 11:27:00,
2013-02-05 03:33:00,33.7,24.6,30.04,WSW,248,3.0,3.0,69,0.00,,,0.00,Wunderground v.1.15,2013-02-05 11:33:00,
2013-02-05 03:38:00,34.3,24.1,30.04,WNW,284,2.0,3.0,66,0.00,,,0.00,Wunderground v.1.15,2013-02-05 11:38:00,
2013-02-05 03:44:00,33.6,24.2,30.03,West,265,2.0,4.0,68,0.00,,,0.00,Wunderground v.1.15,2013-02-05 11:44:00,
2013-02-05 03:49:00,33.5,23.7,30.03,WSW,250,2.0,4.0,67,0.00,,,0.00,Wunderground v.1.15,2013-02-05 11:49:00,
2013-02-05 03:55:00,34.3,24.1,30.03,West,269,1.0,2.0,66,0.00,,,0.00,Wunderground v.1.15,2013-02-05 11:55:00,
2013-02-05 04:01:00,34.0,23.5,30.03,West,274,1.0,2.0,65,0.00,,,0.00,Wunderground v.1.15,2013-02-05 12:01:00,
2013-02-05 04:07:00,34.0,23.5,30.03,West,274,2.0,2.0,65,0.00,,,0.00,Wunderground v.1.15,2013-02-05 12:07:00,
2013-02-05 04:13:00,-999.9,-99.9,30.04,North,32767,-999.0,0.0,255,-99.99,,,0.00,Wunderground v.1.15,2013-02-05 12:13:00,
2013-02-05 04:19:00,-999.9,-99.9,30.03,North,32767,-999.0,0.0,255,-99.99,,,0.00,Wunderground v.1.15,2013-02-05 12:19:00,
2013-02-05 04:25:00,-999.9,-99.9,30.03,North,32767,-999.0,0.0,255,-99.99,,,0.00,Wunderground v.1.15,2013-02-05 12:25:00,
2013-02-05 04:30:00,-999.9,-99.9,30.03,North,32767,-999.0,0.0,255,-99.99,,,0.00,Wunderground v.1.15,2013-02-05 12:30:00,
2013-02-05 04:36:00,-999.9,-99.9,30.03,North,32767,-999.0,0.0,255,-99.99,,,0.00,Wunderground v.1.15,2013-02-05 12:36:00,
2013-02-05 04:42:00,-999.9,-99.9,30.03,North,32767,-999.0,0.0,255,-99.99,,,0.00,Wunderground v.1.15,2013-02-05 12:42:00,
2013-02-05 04:47:00,-999.9,-99.9,30.02,North,32767,-999.0,0.0,255,-99.99,,,0.00,Wunderground v.1.15,2013-02-05 12:47:00,
2013-02-05 04:53:00,-999.9,-99.9,30.03,North,32767,-999.0,0.0,255,-99.99,,,0.00,Wunderground v.1.15,2013-02-05 12:53:00,
2013-02-05 04:59:00,-999.9,-99.9,30.02,North,32767,-999.0,0.0,255,-99.99,,,0.00,Wunderground v.1.15,2013-02-05 12:59:00,
2013-02-05 05:05:00,-999.9,-99.9,30.02,North,32767,-999.0,0.0,255,-99.99,,,0.00,Wunderground v.1.15,2013-02-05 13:05:00,
2013-02-05 05:10:00,-999.9,-99.9,30.02,North,32767,-999.0,0.0,255,-99.99,,,0.00,Wunderground v.1.15,2013-02-05 13:10:00,
2013-02-05 05:16:00,-999.9,-99.9,30.02,North,32767,-999.0,0.0,255,-99.99,,,0.00,Wunderground v.1.15,2013-02-05 13:16:00,
2013-02-05 05:22:00,-999.9,-99.9,30.01,North,32767,-999.0,0.0,255,-99.99,,,0.00,Wunderground v.1.15,2013-02-05 13:22:00,
2013-02-05 05:27:00,-999.9,-99.9,30.01,North,32767,-999.0,0.0,255,-99.99,,,0.00,Wunderground v.1.15,2013-02-05 13:27:00,
2013-02-05 05:32:00,-999.9,-99.9,30.01,North,32767,-999.0,0.0,255,-99.99,,,0.00,Wunderground v.1.15,2013-02-05 13:32:00,
2013-02-05 05:37:00,-999.9,-99.9,30.01,North,32767,-999.0,0.0,255,-99.99,,,0.00,Wunderground v.1.15,2013-02-05 13:37:00,
2013-02-05 05:43:00,-999.9,-99.9,30.01,North,32767,-999.0,0.0,255,-99.99,,,0.00,Wunderground v.1.15,2013-02-05 13:43:00,
2013-02-05 05:48:00,-999.9,-99.9,30.01,North,32767,-999.0,0.0,255,-99.99,,,0.00,Wunderground v.1.15,2013-02-05 13:48:00,
2013-02-05 05:53:00,-999.9,-99.9,30.00,North,32767,-999.0,0.0,255,-99.99,,,0.00,Wunderground v.1.15,2013-02-05 13:53:00,
2013-02-05 05:59:00,-999.9,-99.9,30.00,North,32767,-999.0,0.0,255,-99.99,,,0.00,Wunderground v.1.15,2013-02-05 13:59:00,
2013-02-05 06:06:00,-999.9,-99.9,30.00,North,32767,-999.0,0.0,255,-99.99,,,0.00,Wunderground v.1.15,2013-02-05 14:06:00,
2013-02-05 06:11:00,-999.9,-99.9,30.00,North,32767,-999.0,0.0,255,-99.99,,,0.00,Wunderground v.1.15,2013-02-05 14:11:00,
2013-02-05 06:16:00,-999.9,-99.9,30.00,North,32767,-999.0,0.0,255,-99.99,,,0.00,Wunderground v.1.15,2013-02-05 14:16:00,
2013-02-05 06:22:00,-999.9,-99.9,30.00,North,32767,-999.0,0.0,255,-99.99,,,0.00,Wunderground v.1.15,2013-02-05 14:22:00,
2013-02-05 06:27:00,-999.9,-99.9,30.00,North,32767,-999.0,0.0,255,-99.99,,,0.00,Wunderground v.1.15,2013-02-05 14:27:00,
2013-02-05 06:32:00,-999.9,-99.9,30.00,North,32767,-999.0,0.0,255,-99.99,,,0.00,Wunderground v.1.15,2013-02-05 14:32:00,
2013-02-05 06:37:00,-999.9,-99.9,30.00,North,32767,-999.0,0.0,255,-99.99,,,0.00,Wunderground v.1.15,2013-02-05 14:37:00,
2013-02-05 06:43:00,-999.9,-99.9,30.00,North,32767,-999.0,0.0,255,-99.99,,,0.00,Wunderground v.1.15,2013-02-05 14:43:00,
2013-02-05 06:49:00,-999.9,-99.9,30.00,North,32767,-999.0,0.0,255,-99.99,,,0.00,Wunderground v.1.15,2013-02-05 14:49:00,
2013-02-05 06:54:00,-999.9,-99.9,29.99,North,32767,-999.0,0.0,255,-99.99,,,0.00,Wunderground v.1.15,2013-02-05 14:54:00,
2013-02-05 07:00:00,-999.9,-99.9,30.00,North,32767,-999.0,0.0,255,-99.99,,,0.00,Wunderground v.1.15,2013-02-05 15:00:00,
2013-02-05 07:06:00,-999.9,-99.9,29.99,North,32767,-999.0,0.0,255,-99.99,,,0.00,Wunderground v.1.15,2013-02-05 15:06:00,
2013-02-05 07:11:00,-999.9,-99.9,29.99,North,32767,-999.0,0.0,255,-99.99,,,0.00,Wunderground v.1.15,2013-02-05 15:11:00,
2013-02-05 07:17:00,-999.9,-99.9,30.00,North,32767,-999.0,0.0,255,-99.99,,,0.00,Wunderground v.1.15,2013-02-05 15:17:00,
2013-02-05 07:22:00,-999.9,-99.9,30.00,North,32767,-999.0,0.0,255,-99.99,,,0.00,Wunderground v.1.15,2013-02-05 15:22:00,
2013-02-05 07:28:00,32.4,23.7,29.99,SSE,165,5.0,5.0,70,0.00,,,0.00,Wunderground v.1.15,2013-02-05 15:28:00,
2013-02-05 07:34:00,32.7,23.6,30.00,SSW,200,6.0,6.0,69,0.00,,,0.00,Wunderground v.1.15,2013-02-05 15:34:00,
2013-02-05 07:40:00,32.2,23.2,30.00,NW,321,4.0,7.0,69,0.00,,,0.00,Wunderground v.1.15,2013-02-05 15:40:00,
2013-02-05 07:45:00,33.5,24.4,30.01,SSE,156,2.0,4.0,69,0.00,,,0.00,Wunderground v.1.15,2013-02-05 15:45:00,
2013-02-05 07:51:00,33.7,23.9,30.01,SSE,156,1.0,1.0,67,0.00,,,0.00,Wunderground v.1.15,2013-02-05 15:51:00,
2013-02-05 07:57:00,34.1,24.3,30.01,SSE,156,1.0,1.0,67,0.00,,,0.00,Wunderground v.1.15,2013-02-05 15:57:00,
2013-02-05 08:03:00,35.1,24.9,30.01,North,4,0.0,3.0,66,0.00,,,0.00,Wunderground v.1.15,2013-02-05 16:03:00,
2013-02-05 08:09:00,35.3,25.1,30.01,North,350,1.0,3.0,66,0.00,,,0.00,Wunderground v.1.15,2013-02-05 16:09:00,
2013-02-05 08:15:00,36.7,26.0,30.01,North,350,1.0,1.0,65,0.00,,,0.00,Wunderground v.1.15,2013-02-05 16:15:00,
2013-02-05 08:20:00,37.6,26.1,30.01,ENE,72,1.0,2.0,63,0.00,,,0.00,Wunderground v.1.15,2013-02-05 16:20:00,
2013-02-05 08:26:00,38.1,25.8,30.01,East,87,1.0,2.0,61,0.00,,,0.00,Wunderground v.1.15,2013-02-05 16:26:00,
2013-02-05 08:31:00,38.5,25.4,30.00,ESE,103,1.0,1.0,59,0.00,,,0.00,Wunderground v.1.15,2013-02-05 16:31:00,
2013-02-05 08:37:00,39.0,25.9,30.00,SE,136,1.0,2.0,59,0.00,,,0.00,Wunderground v.1.15,2013-02-05 16:37:00,
2013-02-05 08:42:00,39.6,25.6,30.00,SSW,206,1.0,2.0,57,0.00,,,0.00,Wunderground v.1.15,2013-02-05 16:42:00,
2013-02-05 08:48:00,40.8,25.4,30.00,SSE,156,1.0,2.0,54,0.00,,,0.00,Wunderground v.1.15,2013-02-05 16:48:00,
2013-02-05 08:53:00,41.2,25.3,30.01,SSE,154,2.0,2.0,53,0.00,,,0.00,Wunderground v.1.15,2013-02-05 16:53:00,
2013-02-05 08:59:00,42.3,26.8,30.01,South,185,1.0,2.0,54,0.00,,,0.00,Wunderground v.1.15,2013-02-05 16:59:00,
2013-02-05 09:05:00,43.2,26.3,30.00,WSW,248,1.0,2.0,51,0.00,,,0.00,Wunderground v.1.15,2013-02-05 17:05:00,
2013-02-05 09:11:00,43.9,26.4,30.00,West,260,2.0,4.0,50,0.00,,,0.00,Wunderground v.1.15,2013-02-05 17:11:00,
2013-02-05 09:17:00,45.0,26.0,30.00,WSW,253,3.0,6.0,47,0.00,,,0.00,Wunderground v.1.15,2013-02-05 17:17:00,
2013-02-05 09:22:00,46.0,25.3,30.00,West,262,4.0,6.0,44,0.00,,,0.00,Wunderground v.1.15,2013-02-05 17:22:00,
2013-02-05 09:28:00,46.2,26.0,30.00,WSW,257,3.0,6.0,45,0.00,,,0.00,Wunderground v.1.15,2013-02-05 17:28:00,
2013-02-05 09:34:00,46.3,26.1,30.00,West,271,2.0,3.0,45,0.00,,,0.00,Wunderground v.1.15,2013-02-05 17:34:00,
2013-02-05 09:40:00,46.1,25.4,30.00,WNW,285,2.0,2.0,44,0.00,,,0.00,Wunderground v.1.15,2013-02-05 17:40:00,
2013-02-05 09:45:00,46.4,26.2,30.00,WNW,293,2.0,2.0,45,0.00,,,0.00,Wunderground v.1.15,2013-02-05 17:45:00,
2013-02-05 09:51:00,47.8,25.8,30.00,West,277,1.0,1.0,42,0.00,,,0.00,Wunderground v.1.15,2013-02-05 17:51:00,
2013-02-05 09:57:00,48.8,26.1,30.00,West,272,0.0,2.0,41,0.00,,,0.00,Wunderground v.1.15,2013-02-05 17:57:00,
2013-02-05 10:03:00,49.7,25.1,30.00,SW,215,1.0,5.0,38,0.00,,,0.00,Wunderground v.1.15,2013-02-05 18:03:00,
2013-02-05 10:09:00,51.0,23.6,30.00,SW,229,3.0,6.0,34,0.00,,,0.00,Wunderground v.1.15,2013-02-05 18:09:00,
2013-02-05 10:14:00,51.7,23.5,30.00,SW,219,4.0,5.0,33,0.00,,,0.00,Wunderground v.1.15,2013-02-05 18:14:00,
2013-02-05 10:20:00,52.2,22.4,30.00,WSW,242,5.0,7.0,31,0.00,,,0.00,Wunderground v.1.15,2013-02-05 18:20:00,
2013-02-05 10:25:00,52.6,22.0,30.00,SSW,204,6.0,8.0,30,0.00,,,0.00,Wunderground v.1.15,2013-02-05 18:25:00,
2013-02-05 10:31:00,52.9,22.3,29.99,SW,227,7.0,8.0,30,0.00,,,0.00,Wunderground v.1.15,2013-02-05 18:31:00,
2013-02-05 10:37:00,53.3,21.8,29.99,SW,222,7.0,8.0,29,0.00,,,0.00,Wunderground v.1.15,2013-02-05 18:37:00,
2013-02-05 10:42:00,53.7,22.2,29.99,SW,215,6.0,8.0,29,0.00,,,0.00,Wunderground v.1.15,2013-02-05 18:42:00,
2013-02-05 10:48:00,54.1,21.7,29.99,SW,217,7.0,9.0,28,0.00,,,0.00,Wunderground v.1.15,2013-02-05 18:48:00,
2013-02-05 10:54:00,54.1,24.1,29.99,WSW,258,7.0,7.0,31,0.00,,,0.00,Wunderground v.1.15,2013-02-05 18:54:00,
2013-02-05 10:59:00,53.8,24.6,29.99,WNW,286,5.0,7.0,32,0.00,,,0.00,Wunderground v.1.15,2013-02-05 18:59:00,
2013-02-05 11:05:00,53.5,25.1,29.98,WNW,298,3.0,5.0,33,0.00,,,0.00,Wunderground v.1.15,2013-02-05 19:05:00,
2013-02-05 11:10:00,53.8,24.6,29.97,WNW,299,3.0,3.0,32,0.00,,,0.00,Wunderground v.1.15,2013-02-05 19:10:00,
2013-02-05 11:16:00,54.4,24.4,29.97,WSW,257,1.0,3.0,31,0.00,,,0.00,Wunderground v.1.15,2013-02-05 19:16:00,
2013-02-05 11:22:00,55.3,24.4,29.96,WSW,248,1.0,2.0,30,0.00,,,0.00,Wunderground v.1.15,2013-02-05 19:22:00,
2013-02-05 11:27:00,56.2,20.8,29.96,South,178,3.0,8.0,25,0.00,,,0.00,Wunderground v.1.15,2013-02-05 19:27:00,
2013-02-05 11:33:00,56.9,18.4,29.96,SW,234,6.0,9.0,22,0.00,,,0.00,Wunderground v.1.15,2013-02-05 19:33:00,
2013-02-05 11:39:00,57.0,17.4,29.95,WSW,255,6.0,10.0,21,0.00,,,0.00,Wunderground v.1.15,2013-02-05 19:39:00,
2013-02-05 11:45:00,57.5,15.5,29.94,SSW,209,5.0,6.0,19,0.00,,,0.00,Wunderground v.1.15,2013-02-05 19:45:00,
2013-02-05 11:51:00,58.2,17.3,29.94,SW,222,5.0,9.0,20,0.00,,,0.00,Wunderground v.1.15,2013-02-05 19:51:00,
2013-02-05 11:57:00,58.4,17.4,29.93,SW,233,6.0,9.0,20,0.00,,,0.00,Wunderground v.1.15,2013-02-05 19:57:00,
2013-02-05 12:02:00,58.7,13.9,29.93,SSW,213,8.0,10.0,17,0.00,,,0.00,Wunderground v.1.15,2013-02-05 20:02:00,
2013-02-05 12:08:00,59.1,14.3,29.93,SSW,202,10.0,11.0,17,0.00,,,0.00,Wunderground v.1.15,2013-02-05 20:08:00,
2013-02-05 12:13:00,59.4,14.5,29.92,SSW,203,10.0,14.0,17,0.00,,,0.00,Wunderground v.1.15,2013-02-05 20:13:00,
2013-02-05 12:18:00,59.7,13.4,29.92,SW,216,10.0,14.0,16,0.00,,,0.00,Wunderground v.1.15,2013-02-05 20:18:00,
2013-02-05 12:24:00,59.0,14.2,29.92,SW,222,9.0,13.0,17,0.00,,,0.00,Wunderground v.1.15,2013-02-05 20:24:00,
2013-02-05 12:30:00,58.6,15.2,29.92,SSW,202,8.0,8.0,18,0.00,,,0.00,Wunderground v.1.15,2013-02-05 20:30:00,
2013-02-05 12:36:00,58.7,15.2,29.91,SSW,201,6.0,11.0,18,0.00,,,0.00,Wunderground v.1.15,2013-02-05 20:36:00,
2013-02-05 12:41:00,58.8,15.3,29.91,SSW,192,6.0,7.0,18,0.00,,,0.00,Wunderground v.1.15,2013-02-05 20:41:00,
2013-02-05 12:46:00,58.7,15.2,29.91,South,185,6.0,8.0,18,0.00,,,0.00,Wunderground v.1.15,2013-02-05 20:46:00,
2013-02-05 12:52:00,58.7,15.2,29.90,SSW,212,5.0,5.0,18,0.00,,,0.00,Wunderground v.1.15,2013-02-05 20:52:00,
2013-02-05 12:58:00,58.8,15.3,29.90,SSW,210,5.0,9.0,18,0.00,,,0.00,Wunderground v.1.15,2013-02-05 20:58:00,
2013-02-05 13:04:00,58.9,15.4,29.89,SSW,202,6.0,9.0,18,0.00,,,0.00,Wunderground v.1.15,2013-02-05 21:04:00,
2013-02-05 13:09:00,59.2,15.7,29.89,SSW,194,6.0,9.0,18,0.00,,,0.00,Wunderground v.1.15,2013-02-05 21:09:00,
2013-02-05 13:15:00,59.4,15.8,29.89,South,169,7.0,8.0,18,0.00,,,0.00,Wunderground v.1.15,2013-02-05 21:15:00,
2013-02-05 13:20:00,59.6,16.0,29.88,SSE,155,8.0,8.0,18,0.00,,,0.00,Wunderground v.1.15,2013-02-05 21:20:00,
2013-02-05 13:26:00,60.1,16.4,29.88,SSE,154,7.0,11.0,18,0.00,,,0.00,Wunderground v.1.15,2013-02-05 21:26:00,
2013-02-05 13:32:00,60.3,15.2,29.87,South,180,7.0,11.0,17,0.00,,,0.00,Wunderground v.1.15,2013-02-05 21:32:00,
2013-02-05 13:38:00,60.6,15.5,29.87,South,186,7.0,11.0,17,0.00,,,0.00,Wunderground v.1.15,2013-02-05 21:38:00,
2013-02-05 13:44:00,61.0,11.4,29.87,WSW,244,7.0,16.0,14,0.00,,,0.00,Wunderground v.1.15,2013-02-05 21:44:00,
2013-02-05 13:50:00,61.2,9.9,29.86,WSW,242,10.0,10.0,13,0.00,,,0.00,Wunderground v.1.15,2013-02-05 21:50:00,
2013-02-05 13:56:00,60.9,9.6,29.86,WSW,251,12.0,13.0,13,0.00,,,0.00,Wunderground v.1.15,2013-02-05 21:56:00,
2013-02-05 14:01:00,60.7,11.1,29.86,WSW,237,11.0,11.0,14,0.00,,,0.00,Wunderground v.1.15,2013-02-05 22:01:00,
2013-02-05 14:06:00,60.5,9.3,29.86,WSW,244,10.0,12.0,13,0.00,,,0.00,Wunderground v.1.15,2013-02-05 22:06:00,
2013-02-05 14:12:00,60.4,10.9,29.86,SW,231,9.0,11.0,14,0.00,,,0.00,Wunderground v.1.15,2013-02-05 22:12:00,
2013-02-05 14:18:00,60.2,10.7,29.86,WSW,240,8.0,11.0,14,0.00,,,0.00,Wunderground v.1.15,2013-02-05 22:18:00,
2013-02-05 14:23:00,60.0,12.1,29.86,SW,231,7.0,8.0,15,0.00,,,0.00,Wunderground v.1.15,2013-02-05 22:23:00,
2013-02-05 14:28:00,59.8,10.4,29.86,WSW,238,8.0,12.0,14,0.00,,,0.00,Wunderground v.1.15,2013-02-05 22:28:00,
2013-02-05 14:33:00,59.7,11.9,29.86,WSW,241,10.0,11.0,15,0.00,,,0.00,Wunderground v.1.15,2013-02-05 22:33:00,
2013-02-05 14:39:00,59.5,10.2,29.85,SW,219,11.0,14.0,14,0.00,,,0.00,Wunderground v.1.15,2013-02-05 22:39:00,
2013-02-05 14:45:00,59.3,10.0,29.85,SW,234,12.0,14.0,14,0.00,,,0.00,Wunderground v.1.15,2013-02-05 22:45:00,
2013-02-05 14:51:00,59.3,10.0,29.85,SSW,213,10.0,12.0,14,0.00,,,0.00,Wunderground v.1.15,2013-02-05 22:51:00,
2013-02-05 14:57:00,59.3,11.6,29.85,SSW,193,9.0,12.0,15,0.00,,,0.00,Wunderground v.1.15,2013-02-05 22:57:00,
2013-02-05 15:02:00,59.1,11.4,29.85,SW,214,8.0,10.0,15,0.00,,,0.00,Wunderground v.1.15,2013-02-05 23:02:00,
2013-02-05 15:08:00,58.9,12.7,29.86,SW,230,9.0,12.0,16,0.00,,,0.00,Wunderground v.1.15,2013-02-05 23:08:00,
2013-02-05 15:13:00,58.7,11.1,29.85,SW,225,9.0,10.0,15,0.00,,,0.00,Wunderground v.1.15,2013-02-05 23:13:00,
2013-02-05 15:19:00,58.7,11.1,29.86,SSW,213,9.0,11.0,15,0.00,,,0.00,Wunderground v.1.15,2013-02-05 23:19:00,
2013-02-05 15:25:00,58.7,11.1,29.86,SW,216,9.0,11.0,15,0.00,,,0.00,Wunderground v.1.15,2013-02-05 23:25:00,
2013-02-05 15:30:00,58.7,11.1,29.86,SSW,210,9.0,10.0,15,0.00,,,0.00,Wunderground v.1.15,2013-02-05 23:30:00,
2013-02-05 15:36:00,58.7,11.1,29.86,SW,216,9.0,11.0,15,0.00,,,0.00,Wunderground v.1.15,2013-02-05 23:36:00,
2013-02-05 15:42:00,58.6,11.0,29.86,SSW,211,9.0,12.0,15,0.00,,,0.00,Wunderground v.1.15,2013-02-05 23:42:00,
2013-02-05 15:48:00,58.7,11.1,29.86,SW,216,9.0,13.0,15,0.00,,,0.00,Wunderground v.1.15,2013-02-05 23:48:00,
2013-02-05 15:54:00,58.5,9.4,29.85,SW,233,10.0,14.0,14,0.00,,,0.00,Wunderground v.1.15,2013-02-05 23:54:00,
2013-02-05 16:01:00,58.6,9.5,29.85,SW,229,11.0,12.0,14,0.00,,,0.00,Wunderground v.1.15,2013-02-06 00:01:00,
2013-02-05 16:06:00,58.6,7.8,29.85,WSW,239,13.0,20.0,13,0.00,,,0.00,Wunderground v.1.15,2013-02-06 00:06:00,
2013-02-05 16:12:00,58.5,6.0,29.84,SW,233,15.0,19.0,12,0.00,,,0.00,Wunderground v.1.15,2013-02-06 00:12:00,
2013-02-05 16:18:00,58.3,5.8,29.85,WSW,251,16.0,21.0,12,0.00,,,0.00,Wunderground v.1.15,2013-02-06 00:18:00,
2013-02-05 16:23:00,57.9,5.5,29.84,WSW,244,17.0,17.0,12,0.00,,,0.00,Wunderground v.1.15,2013-02-06 00:23:00,
2013-02-05 16:29:00,57.5,6.9,29.84,WSW,237,16.0,17.0,13,0.00,,,0.00,Wunderground v.1.15,2013-02-06 00:29:00,
2013-02-05 16:35:00,57.2,6.7,29.84,WSW,254,16.0,21.0,13,0.00,,,0.00,Wunderground v.1.15,2013-02-06 00:35:00,
2013-02-05 16:41:00,56.7,6.3,29.85,WSW,237,16.0,16.0,13,0.00,,,0.00,Wunderground v.1.15,2013-02-06 00:41:00,
2013-02-05 16:46:00,56.6,6.2,29.85,WSW,244,15.0,16.0,13,0.00,,,0.00,Wunderground v.1.15,2013-02-06 00:46:00,
2013-02-05 16:52:00,56.7,6.3,29.85,WSW,252,15.0,15.0,13,0.00,,,0.00,Wunderground v.1.15,2013-02-06 00:52:00,
2013-02-05 16:58:00,56.6,6.2,29.85,West,269,15.0,18.0,13,0.00,,,0.00,Wunderground v.1.15,2013-02-06 00:58:00,
2013-02-05 17:04:00,56.4,6.1,29.85,WSW,247,15.0,18.0,13,0.00,,,0.00,Wunderground v.1.15,2013-02-06 01:04:00,
2013-02-05 17:09:00,56.1,7.5,29.85,WSW,240,14.0,18.0,14,0.00,,,0.00,Wunderground v.1.15,2013-02-06 01:09:00,
2013-02-05 17:15:00,55.8,10.2,29.85,SW,235,14.0,17.0,16,0.00,,,0.00,Wunderground v.1.15,2013-02-06 01:15:00,
2013-02-05 17:20:00,55.4,9.9,29.85,WSW,245,15.0,16.0,16,0.00,,,0.00,Wunderground v.1.15,2013-02-06 01:20:00,
2013-02-05 17:25:00,55.1,9.6,29.85,WSW,258,15.0,16.0,16,0.00,,,0.00,Wunderground v.1.15,2013-02-06 01:25:00,
2013-02-05 17:31:00,54.8,9.4,29.86,WSW,237,14.0,14.0,16,0.00,,,0.00,Wunderground v.1.15,2013-02-06 01:31:00,
2013-02-05 17:37:00,54.5,10.5,29.86,WSW,250,13.0,14.0,17,0.00,,,0.00,Wunderground v.1.15,2013-02-06 01:37:00,
2013-02-05 17:43:00,54.0,10.1,29.86,WSW,257,12.0,13.0,17,0.00,,,0.00,Wunderground v.1.15,2013-02-06 01:43:00,
2013-02-05 17:49:00,54.0,10.1,29.86,WSW,245,13.0,17.0,17,0.00,,,0.00,Wunderground v.1.15,2013-02-06 01:49:00,
2013-02-05 17:54:00,54.3,9.0,29.86,WSW,237,13.0,21.0,16,0.00,,,0.00,Wunderground v.1.15,2013-02-06 01:54:00,
2013-02-05 17:59:00,54.5,9.1,29.87,West,266,13.0,21.0,16,0.00,,,0.00,Wunderground v.1.15,2013-02-06 01:59:00,
2013-02-05 18:04:00,53.5,8.3,29.87,NW,321,10.0,13.0,16,0.00,,,0.00,Wunderground v.1.15,2013-02-06 02:04:00,
2013-02-05 18:10:00,51.8,9.6,29.88,WNW,293,5.0,6.0,18,0.00,,,0.00,Wunderground v.1.15,2013-02-06 02:10:00,
2013-02-05 18:16:00,51.3,11.5,29.88,West,264,5.0,7.0,20,0.00,,,0.00,Wunderground v.1.15,2013-02-06 02:16:00,
2013-02-05 18:22:00,50.8,13.3,29.88,WSW,254,6.0,8.0,22,0.00,,,0.00,Wunderground v.1.15,2013-02-06 02:22:00,
2013-02-05 18:28:00,50.0,12.6,29.89,WNW,283,4.0,8.0,22,0.00,,,0.00,Wunderground v.1.15,2013-02-06 02:28:00,
2013-02-05 18:33:00,49.7,11.3,29.89,NW,317,5.0,14.0,21,0.00,,,0.00,Wunderground v.1.15,2013-02-06 02:33:00,
2013-02-05 18:39:00,49.3,10.9,29.89,NW,326,10.0,14.0,21,0.00,,,0.00,Wunderground v.1.15,2013-02-06 02:39:00,
2013-02-05 18:45:00,49.2,12.9,29.89,NW,309,11.0,12.0,23,0.00,,,0.00,Wunderground v.1.15,2013-02-06 02:45:00,
2013-02-05 18:50:00,48.7,12.5,29.90,West,259,10.0,10.0,23,0.00,,,0.00,Wunderground v.1.15,2013-02-06 02:50:00,
2013-02-05 18:56:00,47.9,12.8,29.90,WNW,294,7.0,10.0,24,0.00,,,0.00,Wunderground v.1.15,2013-02-06 02:56:00,
2013-02-05 19:02:00,47.4,13.3,29.91,West,266,6.0,8.0,25,0.00,,,0.00,Wunderground v.1.15,2013-02-06 03:02:00,
2013-02-05 19:07:00,47.4,13.3,29.91,West,281,7.0,10.0,25,0.00,,,0.00,Wunderground v.1.15,2013-02-06 03:07:00,
2013-02-05 19:13:00,47.1,13.9,29.92,WSW,249,7.0,10.0,26,0.00,,,0.00,Wunderground v.1.15,2013-02-06 03:13:00,
2013-02-05 19:19:00,46.7,14.4,29.91,West,264,6.0,10.0,27,0.00,,,0.00,Wunderground v.1.15,2013-02-06 03:19:00,
2013-02-05 19:24:00,46.2,14.0,29.91,WNW,284,5.0,7.0,27,0.00,,,0.00,Wunderground v.1.15,2013-02-06 03:24:00,
2013-02-05 19:30:00,46.4,15.8,29.92,West,262,7.0,7.0,29,0.00,,,0.00,Wunderground v.1.15,2013-02-06 03:30:00,
2013-02-05 19:36:00,46.3,16.5,29.92,WNW,290,8.0,8.0,30,0.00,,,0.00,Wunderground v.1.15,2013-02-06 03:36:00,
2013-02-05 19:41:00,45.7,17.5,29.92,West,262,8.0,9.0,32,0.00,,,0.00,Wunderground v.1.15,2013-02-06 03:41:00,
2013-02-05 19:47:00,45.3,18.5,29.92,West,281,7.0,12.0,34,0.00,,,0.00,Wunderground v.1.15,2013-02-06 03:47:00,
2013-02-05 19:53:00,45.3,18.5,29.93,West,272,7.0,12.0,34,0.00,,,0.00,Wunderground v.1.15,2013-02-06 03:53:00,
2013-02-05 19:59:00,45.2,19.1,29.93,West,281,10.0,15.0,35,0.00,,,0.00,Wunderground v.1.15,2013-02-06 03:59:00,
2013-02-05 20:04:00,45.3,19.2,29.93,West,269,11.0,12.0,35,0.00,,,0.00,Wunderground v.1.15,2013-02-06 04:04:00,
2013-02-05 20:10:00,45.1,19.0,29.93,WNW,288,8.0,8.0,35,0.00,,,0.00,Wunderground v.1.15,2013-02-06 04:10:00,
2013-02-05 20:16:00,44.7,19.3,29.93,West,270,8.0,12.0,36,0.00,,,0.00,Wunderground v.1.15,2013-02-06 04:16:00,
2013-02-05 20:21:00,44.8,19.4,29.93,WSW,253,10.0,13.0,36,0.00,,,0.00,Wunderground v.1.15,2013-02-06 04:21:00,
2013-02-05 20:27:00,44.7,20.0,29.94,West,264,10.0,13.0,37,0.00,,,0.00,Wunderground v.1.15,2013-02-06 04:27:00,
2013-02-05 20:33:00,44.7,20.0,29.94,West,281,9.0,11.0,37,0.00,,,0.00,Wunderground v.1.15,2013-02-06 04:33:00,
2013-02-05 20:38:00,44.5,19.8,29.94,West,264,9.0,11.0,37,0.00,,,0.00,Wunderground v.1.15,2013-02-06 04:38:00,
2013-02-05 20:44:00,44.1,20.1,29.94,West,279,10.0,12.0,38,0.00,,,0.00,Wunderground v.1.15,2013-02-06 04:44:00,
2013-02-05 20:50:00,44.0,20.0,29.95,WNW,284,9.0,9.0,38,0.00,,,0.00,Wunderground v.1.15,2013-02-06 04:50:00,
2013-02-05 20:56:00,43.7,19.7,29.95,WNW,295,6.0,9.0,38,0.00,,,0.00,Wunderground v.1.15,2013-02-06 04:56:00,
2013-02-05 21:00:00,43.1,19.8,29.96,WNW,292,6.0,7.0,39,0.00,,,0.00,Wunderground v.1.15,2013-02-06 05:00:00,
2013-02-05 21:01:00,43.0,19.7,29.96,NW,318,6.0,7.0,39,0.00,,,0.00,Wunderground v.1.15,2013-02-06 05:01:00,
2013-02-05 21:03:00,42.7,20.0,29.96,WNW,294,5.0,7.0,40,0.00,,,0.00,Wunderground v.1.15,2013-02-06 05:03:00,
2013-02-05 21:08:00,42.3,19.7,29.96,WNW,294,5.0,7.0,40,0.00,,,0.00,Wunderground v.1.15,2013-02-06 05:08:00,
2013-02-05 21:09:00,42.2,19.6,29.96,WNW,300,5.0,7.0,40,0.00,,,0.00,Wunderground v.1.15,2013-02-06 05:09:00,
2013-02-05 21:15:00,42.1,20.1,29.97,NE,39,5.0,8.0,41,0.00,,,0.00,Wunderground v.1.15,2013-02-06 05:15:00,
2013-02-05 21:20:00,41.9,19.9,29.97,WNW,284,5.0,5.0,41,0.00,,,0.00,Wunderground v.1.15,2013-02-06 05:20:00,
2013-02-05 21:25:00,41.6,19.6,29.97,NW,325,5.0,6.0,41,0.00,,,0.00,Wunderground v.1.15,2013-02-06 05:25:00,
2013-02-05 21:31:00,41.4,19.4,29.97,WNW,292,5.0,7.0,41,0.00,,,0.00,Wunderground v.1.15,2013-02-06 05:31:00,
2013-02-05 21:37:00,41.4,20.0,29.97,West,262,5.0,9.0,42,0.00,,,0.00,Wunderground v.1.15,2013-02-06 05:37:00,
2013-02-05 21:43:00,41.6,20.2,29.98,WNW,285,6.0,10.0,42,0.00,,,0.00,Wunderground v.1.15,2013-02-06 05:43:00,
2013-02-05 21:48:00,41.7,19.7,29.98,West,268,7.0,10.0,41,0.00,,,0.00,Wunderground v.1.15,2013-02-06 05:48:00,
2013-02-05 21:53:00,41.8,19.8,29.98,WSW,246,7.0,8.0,41,0.00,,,0.00,Wunderground v.1.15,2013-02-06 05:53:00,
2013-02-05 21:59:00,41.5,20.6,29.98,SW,226,6.0,8.0,43,0.00,,,0.00,Wunderground v.1.15,2013-02-06 05:59:00,
2013-02-05 22:05:00,41.2,20.4,29.99,WNW,293,5.0,6.0,43,0.00,,,0.00,Wunderground v.1.15,2013-02-06 06:05:00,
2013-02-05 22:11:00,40.6,20.4,29.99,NW,321,3.0,4.0,44,0.00,,,0.00,Wunderground v.1.15,2013-02-06 06:11:00,
2013-02-05 22:17:00,39.4,19.8,29.99,NW,325,3.0,4.0,45,0.00,,,0.00,Wunderground v.1.15,2013-02-06 06:17:00,
2013-02-05 22:22:00,38.4,19.9,30.00,NNW,329,3.0,3.0,47,0.00,,,0.00,Wunderground v.1.15,2013-02-06 06:22:00,
2013-02-05 22:28:00,37.9,19.9,30.00,NW,325,3.0,5.0,48,0.00,,,0.00,Wunderground v.1.15,2013-02-06 06:28:00,
2013-02-05 22:34:00,37.6,20.1,30.00,NNW,328,3.0,3.0,49,0.00,,,0.00,Wunderground v.1.15,2013-02-06 06:34:00,
2013-02-05 22:39:00,37.0,20.1,30.01,NNW,336,2.0,3.0,50,0.00,,,0.00,Wunderground v.1.15,2013-02-06 06:39:00,
2013-02-05 22:45:00,36.9,20.4,30.01,WNW,300,3.0,4.0,51,0.00,,,0.00,Wunderground v.1.15,2013-02-06 06:45:00,
2013-02-05 22:51:00,37.5,20.5,30.01,NW,311,3.0,4.0,50,0.00,,,0.00,Wunderground v.1.15,2013-02-06 06:51:00,
2013-02-05 22:56:00,38.0,21.0,30.01,WNW,286,3.0,4.0,50,0.00,,,0.00,Wunderground v.1.15,2013-02-06 06:56:00,
2013-02-05 23:02:00,38.2,20.7,30.01,West,275,2.0,4.0,49,0.00,,,0.00,Wunderground v.1.15,2013-02-06 07:02:00,
2013-02-05 23:07:00,38.4,20.9,30.01,NW,313,2.0,5.0,49,0.00,,,0.00,Wunderground v.1.15,2013-02-06 07:07:00,
2013-02-05 23:13:00,38.6,21.1,30.02,NW,315,4.0,5.0,49,0.00,,,0.00,Wunderground v.1.15,2013-02-06 07:13:00,
2013-02-05 23:18:00,38.0,20.5,30.02,NW,311,3.0,5.0,49,0.00,,,0.00,Wunderground v.1.15,2013-02-06 07:18:00,
2013-02-05 23:24:00,38.6,21.1,30.02,WNW,301,2.0,3.0,49,0.00,,,0.00,Wunderground v.1.15,2013-02-06 07:24:00,
2013-02-05 23:30:00,38.3,20.8,30.02,WNW,291,1.0,1.0,49,0.00,,,0.00,Wunderground v.1.15,2013-02-06 07:30:00,
2013-02-05 23:35:00,37.9,20.4,30.02,WNW,291,1.0,1.0,49,0.00,,,0.00,Wunderground v.1.15,2013-02-06 07:35:00,
2013-02-05 23:40:00,37.2,20.2,30.02,NNW,337,1.0,3.0,50,0.00,,,0.00,Wunderground v.1.15,2013-02-06 07:40:00,
2013-02-05 23:46:00,36.0,19.6,30.03,NNW,340,2.0,3.0,51,0.00,,,0.00,Wunderground v.1.15,2013-02-06 07:46:00,
2013-02-05 23:51:00,36.1,21.0,30.03,NNW,345,2.0,5.0,54,0.00,,,0.00,Wunderground v.1.15,2013-02-06 07:51:00,
2013-02-05 23:57:00,37.8,21.3,30.03,NW,321,3.0,7.0,51,0.00,,,0.00,Wunderground v.1.15,2013-02-06 07:57:00,